Weyanoke, Louisiana
Current Conditions -  °F | °C
As of 6:35 AM on Friday 19 Dec 2014 (Local Time) from KHZR Reporting Station
Thunderstorm Thunderstorm  
Wind Chill: 54°   Ceiling: 600
Heat Index: 54°   Visibility: 5mi
Dew Point: 53°   Wind: 0mph
Humidity: 97%   Direction: NA
Pressure: 30.12"   Gusts: NA
Location:  30.95°N, 91.46°W
Report Text: KHZR 191235Z AUTO 00000KT 5SM -VCTSRA BKN006 BKN027 OVC070 12/12 A3012 RMK AO2 LTG DSNT E P0009 T01200116
Loading
Personal Weather Stations






























Interactive Weather Map New forecast layout! Learn more

10-Day Weather Forecast

Advertisements
Track Severe Weather on mobile